sensor_id;sensor_type;location;lat;lon;timestamp;temperature;humidity
47310;DHT22;33046;52.270;6.832;2023-03-01T00:01:52;1.90;91.00
47310;DHT22;33046;52.270;6.832;2023-03-01T00:03:59;1.80;91.10
47310;DHT22;33046;52.270;6.832;2023-03-01T00:06:06;1.80;91.10
47310;DHT22;33046;52.270;6.832;2023-03-01T00:08:13;1.80;91.50
47310;DHT22;33046;52.270;6.832;2023-03-01T00:10:21;1.80;91.80
47310;DHT22;33046;52.270;6.832;2023-03-01T00:12:29;1.80;91.40
47310;DHT22;33046;52.270;6.832;2023-03-01T00:14:36;1.80;91.30
47310;DHT22;33046;52.270;6.832;2023-03-01T00:16:43;1.70;91.30
47310;DHT22;33046;52.270;6.832;2023-03-01T00:18:51;1.70;91.20
47310;DHT22;33046;52.270;6.832;2023-03-01T00:20:58;1.70;91.30
47310;DHT22;33046;52.270;6.832;2023-03-01T00:23:05;1.70;91.50
47310;DHT22;33046;52.270;6.832;2023-03-01T00:25:12;1.70;91.50
47310;DHT22;33046;52.270;6.832;2023-03-01T00:27:19;1.60;91.50
47310;DHT22;33046;52.270;6.832;2023-03-01T00:29:28;1.60;91.60
47310;DHT22;33046;52.270;6.832;2023-03-01T00:31:35;1.60;91.70
47310;DHT22;33046;52.270;6.832;2023-03-01T00:33:43;1.60;91.60
47310;DHT22;33046;52.270;6.832;2023-03-01T00:35:50;1.60;91.50
47310;DHT22;33046;52.270;6.832;2023-03-01T00:37:57;1.50;91.70
47310;DHT22;33046;52.270;6.832;2023-03-01T00:40:05;1.50;91.80
47310;DHT22;33046;52.270;6.832;2023-03-01T00:42:11;1.50;91.80
47310;DHT22;33046;52.270;6.832;2023-03-01T00:44:18;1.50;91.60
47310;DHT22;33046;52.270;6.832;2023-03-01T00:46:27;1.40;91.70
47310;DHT22;33046;52.270;6.832;2023-03-01T00:48:35;1.50;91.80
47310;DHT22;33046;52.270;6.832;2023-03-01T00:50:42;1.50;91.90
47310;DHT22;33046;52.270;6.832;2023-03-01T00:52:52;1.50;91.70
47310;DHT22;33046;52.270;6.832;2023-03-01T00:54:59;1.40;91.60
47310;DHT22;33046;52.270;6.832;2023-03-01T00:57:06;1.40;92.00
47310;DHT22;33046;52.270;6.832;2023-03-01T00:59:12;1.40;91.90
47310;DHT22;33046;52.270;6.832;2023-03-01T01:01:21;1.40;91.90
47310;DHT22;33046;52.270;6.832;2023-03-01T01:03:30;1.40;91.90
47310;DHT22;33046;52.270;6.832;2023-03-01T01:05:36;1.40;92.10
47310;DHT22;33046;52.270;6.832;2023-03-01T01:07:43;1.40;91.80
47310;DHT22;33046;52.270;6.832;2023-03-01T01:09:50;1.30;91.70
47310;DHT22;33046;52.270;6.832;2023-03-01T01:11:57;1.30;91.80
47310;DHT22;33046;52.270;6.832;2023-03-01T01:14:05;1.40;92.10
47310;DHT22;33046;52.270;6.832;2023-03-01T01:16:12;1.40;92.00
47310;DHT22;33046;52.270;6.832;2023-03-01T01:18:19;1.30;91.70
47310;DHT22;33046;52.270;6.832;2023-03-01T01:20:27;1.30;92.10
47310;DHT22;33046;52.270;6.832;2023-03-01T01:22:34;1.30;92.00
47310;DHT22;33046;52.270;6.832;2023-03-01T01:24:41;1.30;92.10
47310;DHT22;33046;52.270;6.832;2023-03-01T01:26:49;1.30;92.20
47310;DHT22;33046;52.270;6.832;2023-03-01T01:28:57;1.30;92.00
47310;DHT22;33046;52.270;6.832;2023-03-01T01:31:04;1.30;91.80
47310;DHT22;33046;52.270;6.832;2023-03-01T01:33:11;1.20;92.00
47310;DHT22;33046;52.270;6.832;2023-03-01T01:35:17;1.20;91.90
47310;DHT22;33046;52.270;6.832;2023-03-01T01:37:26;1.20;91.80
47310;DHT22;33046;52.270;6.832;2023-03-01T01:39:33;1.20;92.00
47310;DHT22;33046;52.270;6.832;2023-03-01T01:41:41;1.20;92.00
47310;DHT22;33046;52.270;6.832;2023-03-01T01:44:09;1.20;92.10
47310;DHT22;33046;52.270;6.832;2023-03-01T01:46:23;1.20;92.00
47310;DHT22;33046;52.270;6.832;2023-03-01T01:48:37;1.20;92.00
47310;DHT22;33046;52.270;6.832;2023-03-01T01:50:51;1.20;92.00
47310;DHT22;33046;52.270;6.832;2023-03-01T01:53:00;1.10;91.80
47310;DHT22;33046;52.270;6.832;2023-03-01T01:55:10;1.20;91.80
47310;DHT22;33046;52.270;6.832;2023-03-01T01:57:20;1.20;91.80
47310;DHT22;33046;52.270;6.832;2023-03-01T01:59:29;1.10;91.70
47310;DHT22;33046;52.270;6.832;2023-03-01T02:01:36;1.10;91.90
47310;DHT22;33046;52.270;6.832;2023-03-01T02:03:44;1.10;92.00
47310;DHT22;33046;52.270;6.832;2023-03-01T02:05:55;1.10;92.00
47310;DHT22;33046;52.270;6.832;2023-03-01T02:08:05;1.10;92.00
47310;DHT22;33046;52.270;6.832;2023-03-01T02:10:12;1.10;92.00
47310;DHT22;33046;52.270;6.832;2023-03-01T02:12:23;1.10;91.70
47310;DHT22;33046;52.270;6.832;2023-03-01T02:14:30;1.10;91.70
47310;DHT22;33046;52.270;6.832;2023-03-01T02:16:37;1.00;91.70
47310;DHT22;33046;52.270;6.832;2023-03-01T02:18:44;1.00;91.50
47310;DHT22;33046;52.270;6.832;2023-03-01T02:21:07;1.00;91.90
47310;DHT22;33046;52.270;6.832;2023-03-01T02:23:17;1.00;91.80
47310;DHT22;33046;52.270;6.832;2023-03-01T02:25:32;1.00;92.20
47310;DHT22;33046;52.270;6.832;2023-03-01T02:27:47;1.00;92.20
47310;DHT22;33046;52.270;6.832;2023-03-01T02:29:57;1.00;92.20
47310;DHT22;33046;52.270;6.832;2023-03-01T02:32:04;1.00;92.30
47310;DHT22;33046;52.270;6.832;2023-03-01T02:34:14;0.90;92.30
47310;DHT22;33046;52.270;6.832;2023-03-01T02:36:24;1.00;92.20
47310;DHT22;33046;52.270;6.832;2023-03-01T02:38:32;1.00;92.10
47310;DHT22;33046;52.270;6.832;2023-03-01T02:40:39;0.90;92.00
47310;DHT22;33046;52.270;6.832;2023-03-01T02:42:51;0.90;92.30
47310;DHT22;33046;52.270;6.832;2023-03-01T02:44:59;0.90;92.50
47310;DHT22;33046;52.270;6.832;2023-03-01T02:47:06;0.90;92.70
47310;DHT22;33046;52.270;6.832;2023-03-01T02:49:19;0.90;93.20
47310;DHT22;33046;52.270;6.832;2023-03-01T02:51:43;0.90;93.20
47310;DHT22;33046;52.270;6.832;2023-03-01T02:53:57;0.90;93.10
47310;DHT22;33046;52.270;6.832;2023-03-01T02:56:08;0.90;92.80
47310;DHT22;33046;52.270;6.832;2023-03-01T02:58:15;0.90;92.70
47310;DHT22;33046;52.270;6.832;2023-03-01T03:00:26;0.90;92.60
47310;DHT22;33046;52.270;6.832;2023-03-01T03:02:35;0.90;92.80
47310;DHT22;33046;52.270;6.832;2023-03-01T03:04:50;0.90;93.10
47310;DHT22;33046;52.270;6.832;2023-03-01T03:06:57;0.90;93.00
47310;DHT22;33046;52.270;6.832;2023-03-01T03:09:05;0.90;93.00
47310;DHT22;33046;52.270;6.832;2023-03-01T03:11:12;0.90;93.10
47310;DHT22;33046;52.270;6.832;2023-03-01T03:13:19;0.90;93.30
47310;DHT22;33046;52.270;6.832;2023-03-01T03:15:28;0.90;93.10
47310;DHT22;33046;52.270;6.832;2023-03-01T03:17:35;0.90;93.30
47310;DHT22;33046;52.270;6.832;2023-03-01T03:19:42;0.90;93.30
47310;DHT22;33046;52.270;6.832;2023-03-01T03:21:49;0.80;93.40
47310;DHT22;33046;52.270;6.832;2023-03-01T03:23:56;0.80;93.70
47310;DHT22;33046;52.270;6.832;2023-03-01T03:26:05;0.80;93.40
47310;DHT22;33046;52.270;6.832;2023-03-01T03:28:12;0.80;93.40
47310;DHT22;33046;52.270;6.832;2023-03-01T03:30:19;0.70;93.50
47310;DHT22;33046;52.270;6.832;2023-03-01T03:32:27;0.70;93.50
47310;DHT22;33046;52.270;6.832;2023-03-01T03:34:34;0.70;93.80
47310;DHT22;33046;52.270;6.832;2023-03-01T03:36:41;0.70;93.40
47310;DHT22;33046;52.270;6.832;2023-03-01T03:38:48;0.70;93.20
47310;DHT22;33046;52.270;6.832;2023-03-01T03:41:00;0.70;93.40
47310;DHT22;33046;52.270;6.832;2023-03-01T03:43:08;0.70;93.50
47310;DHT22;33046;52.270;6.832;2023-03-01T03:45:15;0.70;93.60
47310;DHT22;33046;52.270;6.832;2023-03-01T03:47:22;0.70;93.60
47310;DHT22;33046;52.270;6.832;2023-03-01T03:49:30;0.70;93.50
47310;DHT22;33046;52.270;6.832;2023-03-01T03:51:37;0.70;93.40
47310;DHT22;33046;52.270;6.832;2023-03-01T03:53:44;0.70;93.80
47310;DHT22;33046;52.270;6.832;2023-03-01T03:55:51;0.70;93.50
47310;DHT22;33046;52.270;6.832;2023-03-01T03:57:59;0.70;93.40
47310;DHT22;33046;52.270;6.832;2023-03-01T04:00:09;0.60;93.50
47310;DHT22;33046;52.270;6.832;2023-03-01T04:02:17;0.70;93.60
47310;DHT22;33046;52.270;6.832;2023-03-01T04:04:24;0.60;93.50
47310;DHT22;33046;52.270;6.832;2023-03-01T04:06:32;0.60;93.40
47310;DHT22;33046;52.270;6.832;2023-03-01T04:08:40;0.60;93.60
47310;DHT22;33046;52.270;6.832;2023-03-01T04:10:49;0.60;93.60
47310;DHT22;33046;52.270;6.832;2023-03-01T04:12:56;0.60;93.60
47310;DHT22;33046;52.270;6.832;2023-03-01T04:15:05;0.60;93.40
47310;DHT22;33046;52.270;6.832;2023-03-01T04:17:12;0.50;93.70
47310;DHT22;33046;52.270;6.832;2023-03-01T04:19:19;0.50;93.90
47310;DHT22;33046;52.270;6.832;2023-03-01T04:21:26;0.50;94.00
47310;DHT22;33046;52.270;6.832;2023-03-01T04:23:34;0.50;94.20
47310;DHT22;33046;52.270;6.832;2023-03-01T04:25:42;0.50;94.10
47310;DHT22;33046;52.270;6.832;2023-03-01T04:27:49;0.50;94.00
47310;DHT22;33046;52.270;6.832;2023-03-01T04:29:56;0.50;94.00
47310;DHT22;33046;52.270;6.832;2023-03-01T04:32:03;0.50;93.90
47310;DHT22;33046;52.270;6.832;2023-03-01T04:34:10;0.40;94.00
47310;DHT22;33046;52.270;6.832;2023-03-01T04:36:18;0.40;94.10
47310;DHT22;33046;52.270;6.832;2023-03-01T04:38:25;0.40;94.20
47310;DHT22;33046;52.270;6.832;2023-03-01T04:40:33;0.50;94.30
47310;DHT22;33046;52.270;6.832;2023-03-01T04:42:40;0.40;94.40
47310;DHT22;33046;52.270;6.832;2023-03-01T04:44:47;0.50;94.60
47310;DHT22;33046;52.270;6.832;2023-03-01T04:46:53;0.50;94.50
47310;DHT22;33046;52.270;6.832;2023-03-01T04:49:00;0.50;94.20
47310;DHT22;33046;52.270;6.832;2023-03-01T04:51:07;0.40;94.30
47310;DHT22;33046;52.270;6.832;2023-03-01T04:53:14;0.40;94.00
47310;DHT22;33046;52.270;6.832;2023-03-01T04:55:21;0.40;94.30
47310;DHT22;33046;52.270;6.832;2023-03-01T04:57:29;0.40;94.20
47310;DHT22;33046;52.270;6.832;2023-03-01T04:59:36;0.40;94.30
47310;DHT22;33046;52.270;6.832;2023-03-01T05:01:42;0.40;94.40
47310;DHT22;33046;52.270;6.832;2023-03-01T05:03:51;0.40;94.40
47310;DHT22;33046;52.270;6.832;2023-03-01T05:05:59;0.40;94.20
47310;DHT22;33046;52.270;6.832;2023-03-01T05:08:07;0.40;93.90
47310;DHT22;33046;52.270;6.832;2023-03-01T05:10:15;0.30;93.80
47310;DHT22;33046;52.270;6.832;2023-03-01T05:12:22;0.30;93.90
47310;DHT22;33046;52.270;6.832;2023-03-01T05:14:30;0.30;94.10
47310;DHT22;33046;52.270;6.832;2023-03-01T05:16:37;0.30;93.90
47310;DHT22;33046;52.270;6.832;2023-03-01T05:18:44;0.30;94.00
47310;DHT22;33046;52.270;6.832;2023-03-01T05:20:51;0.30;94.10
47310;DHT22;33046;52.270;6.832;2023-03-01T05:22:59;0.30;94.00
47310;DHT22;33046;52.270;6.832;2023-03-01T05:25:06;0.30;94.10
47310;DHT22;33046;52.270;6.832;2023-03-01T05:27:13;0.20;94.30
47310;DHT22;33046;52.270;6.832;2023-03-01T05:29:21;0.30;94.40
47310;DHT22;33046;52.270;6.832;2023-03-01T05:31:29;0.20;94.00
47310;DHT22;33046;52.270;6.832;2023-03-01T05:33:36;0.20;94.20
47310;DHT22;33046;52.270;6.832;2023-03-01T05:35:45;0.20;94.20
47310;DHT22;33046;52.270;6.832;2023-03-01T05:37:52;0.20;94.10
47310;DHT22;33046;52.270;6.832;2023-03-01T05:39:59;0.20;93.90
47310;DHT22;33046;52.270;6.832;2023-03-01T05:42:06;0.10;93.90
47310;DHT22;33046;52.270;6.832;2023-03-01T05:44:13;0.20;94.10
47310;DHT22;33046;52.270;6.832;2023-03-01T05:46:19;0.20;94.20
47310;DHT22;33046;52.270;6.832;2023-03-01T05:48:28;0.20;94.10
47310;DHT22;33046;52.270;6.832;2023-03-01T05:50:36;0.20;94.00
47310;DHT22;33046;52.270;6.832;2023-03-01T05:52:46;0.10;94.10
47310;DHT22;33046;52.270;6.832;2023-03-01T05:54:53;0.10;94.30
47310;DHT22;33046;52.270;6.832;2023-03-01T05:57:00;0.10;94.30
47310;DHT22;33046;52.270;6.832;2023-03-01T05:59:06;0.10;94.20
47310;DHT22;33046;52.270;6.832;2023-03-01T06:01:13;0.10;94.00
47310;DHT22;33046;52.270;6.832;2023-03-01T06:03:20;0.10;93.90
47310;DHT22;33046;52.270;6.832;2023-03-01T06:05:29;0.00;93.90
47310;DHT22;33046;52.270;6.832;2023-03-01T06:07:36;0.00;93.90
47310;DHT22;33046;52.270;6.832;2023-03-01T06:09:43;0.00;93.90
47310;DHT22;33046;52.270;6.832;2023-03-01T06:11:50;0.00;93.80
47310;DHT22;33046;52.270;6.832;2023-03-01T06:13:57;0.00;93.90
47310;DHT22;33046;52.270;6.832;2023-03-01T06:16:05;0.00;94.10
47310;DHT22;33046;52.270;6.832;2023-03-01T06:18:11;0.00;94.20
47310;DHT22;33046;52.270;6.832;2023-03-01T06:20:21;0.00;94.20
47310;DHT22;33046;52.270;6.832;2023-03-01T06:22:30;-0.10;94.50
47310;DHT22;33046;52.270;6.832;2023-03-01T06:24:37;-0.10;94.50
47310;DHT22;33046;52.270;6.832;2023-03-01T06:26:43;-0.10;94.50
47310;DHT22;33046;52.270;6.832;2023-03-01T06:28:50;-0.10;94.50
47310;DHT22;33046;52.270;6.832;2023-03-01T06:30:57;0.00;94.40
47310;DHT22;33046;52.270;6.832;2023-03-01T06:33:04;0.00;94.00
47310;DHT22;33046;52.270;6.832;2023-03-01T06:35:12;-0.10;93.80
47310;DHT22;33046;52.270;6.832;2023-03-01T06:37:19;-0.10;93.90
47310;DHT22;33046;52.270;6.832;2023-03-01T06:39:28;-0.10;93.80
47310;DHT22;33046;52.270;6.832;2023-03-01T06:41:35;-0.10;93.90
47310;DHT22;33046;52.270;6.832;2023-03-01T06:43:42;-0.10;94.20
47310;DHT22;33046;52.270;6.832;2023-03-01T06:45:49;-0.10;94.10
47310;DHT22;33046;52.270;6.832;2023-03-01T06:48:03;-0.20;94.00
47310;DHT22;33046;52.270;6.832;2023-03-01T06:50:11;-0.20;94.20
47310;DHT22;33046;52.270;6.832;2023-03-01T06:52:18;-0.20;94.20
47310;DHT22;33046;52.270;6.832;2023-03-01T06:54:25;-0.10;94.40
47310;DHT22;33046;52.270;6.832;2023-03-01T06:56:33;-0.20;94.50
47310;DHT22;33046;52.270;6.832;2023-03-01T06:58:40;-0.10;94.70
47310;DHT22;33046;52.270;6.832;2023-03-01T07:00:47;-0.10;94.90
47310;DHT22;33046;52.270;6.832;2023-03-01T07:02:54;-0.10;95.10
47310;DHT22;33046;52.270;6.832;2023-03-01T07:05:01;-0.10;95.20
47310;DHT22;33046;52.270;6.832;2023-03-01T07:07:08;-0.10;95.10
47310;DHT22;33046;52.270;6.832;2023-03-01T07:09:15;-0.10;95.20
47310;DHT22;33046;52.270;6.832;2023-03-01T07:11:21;-0.10;95.20
47310;DHT22;33046;52.270;6.832;2023-03-01T07:13:30;0.00;95.10
47310;DHT22;33046;52.270;6.832;2023-03-01T07:15:36;0.00;95.20
47310;DHT22;33046;52.270;6.832;2023-03-01T07:17:43;-0.10;95.20
47310;DHT22;33046;52.270;6.832;2023-03-01T07:19:50;0.00;95.20
47310;DHT22;33046;52.270;6.832;2023-03-01T07:21:57;-0.10;95.20
47310;DHT22;33046;52.270;6.832;2023-03-01T07:24:04;-0.10;95.40
47310;DHT22;33046;52.270;6.832;2023-03-01T07:26:11;-0.10;95.60
47310;DHT22;33046;52.270;6.832;2023-03-01T07:28:18;0.00;95.70
47310;DHT22;33046;52.270;6.832;2023-03-01T07:30:26;0.00;95.60
47310;DHT22;33046;52.270;6.832;2023-03-01T07:32:33;0.10;95.90
47310;DHT22;33046;52.270;6.832;2023-03-01T07:34:40;0.10;96.10
47310;DHT22;33046;52.270;6.832;2023-03-01T07:36:47;0.10;96.10
47310;DHT22;33046;52.270;6.832;2023-03-01T07:38:54;0.10;96.30
47310;DHT22;33046;52.270;6.832;2023-03-01T07:41:01;0.20;96.30
47310;DHT22;33046;52.270;6.832;2023-03-01T07:43:08;0.20;96.30
47310;DHT22;33046;52.270;6.832;2023-03-01T07:45:15;0.30;96.50
47310;DHT22;33046;52.270;6.832;2023-03-01T07:47:23;0.30;96.50
47310;DHT22;33046;52.270;6.832;2023-03-01T07:49:30;0.40;96.60
47310;DHT22;33046;52.270;6.832;2023-03-01T07:51:37;0.40;96.50
47310;DHT22;33046;52.270;6.832;2023-03-01T07:53:45;0.50;96.70
47310;DHT22;33046;52.270;6.832;2023-03-01T07:56:01;0.50;97.00
47310;DHT22;33046;52.270;6.832;2023-03-01T07:58:07;0.60;97.00
47310;DHT22;33046;52.270;6.832;2023-03-01T08:00:15;0.60;97.20
47310;DHT22;33046;52.270;6.832;2023-03-01T08:02:23;0.70;97.10
47310;DHT22;33046;52.270;6.832;2023-03-01T08:04:30;0.80;97.20
47310;DHT22;33046;52.270;6.832;2023-03-01T08:06:37;0.80;97.40
47310;DHT22;33046;52.270;6.832;2023-03-01T08:08:44;1.00;97.20
47310;DHT22;33046;52.270;6.832;2023-03-01T08:10:51;1.00;97.00
47310;DHT22;33046;52.270;6.832;2023-03-01T08:12:58;1.00;97.00
47310;DHT22;33046;52.270;6.832;2023-03-01T08:15:05;1.10;97.00
47310;DHT22;33046;52.270;6.832;2023-03-01T08:17:13;1.10;96.80
47310;DHT22;33046;52.270;6.832;2023-03-01T08:19:22;1.20;97.60
47310;DHT22;33046;52.270;6.832;2023-03-01T08:21:28;1.30;97.80
47310;DHT22;33046;52.270;6.832;2023-03-01T08:23:36;1.30;97.70
47310;DHT22;33046;52.270;6.832;2023-03-01T08:25:42;1.40;97.90
47310;DHT22;33046;52.270;6.832;2023-03-01T08:27:49;1.50;98.00
47310;DHT22;33046;52.270;6.832;2023-03-01T08:29:56;1.60;98.10
47310;DHT22;33046;52.270;6.832;2023-03-01T08:32:03;1.70;97.90
47310;DHT22;33046;52.270;6.832;2023-03-01T08:34:12;1.80;98.20
47310;DHT22;33046;52.270;6.832;2023-03-01T08:36:20;1.90;98.50
47310;DHT22;33046;52.270;6.832;2023-03-01T08:38:27;2.00;98.60
47310;DHT22;33046;52.270;6.832;2023-03-01T08:40:34;2.10;98.40
47310;DHT22;33046;52.270;6.832;2023-03-01T08:42:41;2.20;98.90
47310;DHT22;33046;52.270;6.832;2023-03-01T08:44:48;2.30;98.50
47310;DHT22;33046;52.270;6.832;2023-03-01T08:46:55;2.40;98.20
47310;DHT22;33046;52.270;6.832;2023-03-01T08:49:03;2.40;98.20
47310;DHT22;33046;52.270;6.832;2023-03-01T08:51:11;2.50;97.50
47310;DHT22;33046;52.270;6.832;2023-03-01T08:53:20;2.60;97.50
47310;DHT22;33046;52.270;6.832;2023-03-01T08:55:26;2.60;97.00
47310;DHT22;33046;52.270;6.832;2023-03-01T08:57:33;2.70;97.20
47310;DHT22;33046;52.270;6.832;2023-03-01T08:59:40;2.70;97.10
47310;DHT22;33046;52.270;6.832;2023-03-01T09:01:47;2.80;97.10
47310;DHT22;33046;52.270;6.832;2023-03-01T09:03:53;2.80;97.20
47310;DHT22;33046;52.270;6.832;2023-03-01T09:06:01;2.90;96.50
47310;DHT22;33046;52.270;6.832;2023-03-01T09:08:08;2.90;96.50
47310;DHT22;33046;52.270;6.832;2023-03-01T09:10:17;2.90;96.70
47310;DHT22;33046;52.270;6.832;2023-03-01T09:12:24;3.00;96.30
47310;DHT22;33046;52.270;6.832;2023-03-01T09:14:30;3.00;95.00
47310;DHT22;33046;52.270;6.832;2023-03-01T09:16:37;3.10;95.20
47310;DHT22;33046;52.270;6.832;2023-03-01T09:18:45;3.10;95.00
47310;DHT22;33046;52.270;6.832;2023-03-01T09:20:52;3.10;94.70
47310;DHT22;33046;52.270;6.832;2023-03-01T09:22:58;3.20;94.70
47310;DHT22;33046;52.270;6.832;2023-03-01T09:25:06;3.20;94.60
47310;DHT22;33046;52.270;6.832;2023-03-01T09:27:14;3.30;94.40
47310;DHT22;33046;52.270;6.832;2023-03-01T09:29:21;3.30;94.90
47310;DHT22;33046;52.270;6.832;2023-03-01T09:31:28;3.30;93.30
47310;DHT22;33046;52.270;6.832;2023-03-01T09:33:35;3.40;94.60
47310;DHT22;33046;52.270;6.832;2023-03-01T09:35:42;3.50;94.60
47310;DHT22;33046;52.270;6.832;2023-03-01T09:37:49;3.50;93.80
47310;DHT22;33046;52.270;6.832;2023-03-01T09:39:56;3.50;93.30
47310;DHT22;33046;52.270;6.832;2023-03-01T09:42:03;3.60;94.20
47310;DHT22;33046;52.270;6.832;2023-03-01T09:44:18;3.60;93.40
47310;DHT22;33046;52.270;6.832;2023-03-01T09:46:27;3.70;93.80
47310;DHT22;33046;52.270;6.832;2023-03-01T09:48:41;3.70;91.90
47310;DHT22;33046;52.270;6.832;2023-03-01T09:50:49;3.70;93.30
47310;DHT22;33046;52.270;6.832;2023-03-01T09:53:01;3.80;93.20
47310;DHT22;33046;52.270;6.832;2023-03-01T09:55:12;3.80;93.50
47310;DHT22;33046;52.270;6.832;2023-03-01T09:57:24;3.90;93.90
47310;DHT22;33046;52.270;6.832;2023-03-01T09:59:40;4.00;93.80
47310;DHT22;33046;52.270;6.832;2023-03-01T10:01:55;4.00;92.80
47310;DHT22;33046;52.270;6.832;2023-03-01T10:06:27;4.10;92.90
47310;DHT22;33046;52.270;6.832;2023-03-01T10:08:42;4.10;92.40
47310;DHT22;33046;52.270;6.832;2023-03-01T10:10:49;4.20;92.60
47310;DHT22;33046;52.270;6.832;2023-03-01T10:13:00;4.20;92.20
47310;DHT22;33046;52.270;6.832;2023-03-01T10:15:13;4.20;92.60
47310;DHT22;33046;52.270;6.832;2023-03-01T10:17:26;4.30;92.00
47310;DHT22;33046;52.270;6.832;2023-03-01T10:19:38;4.40;91.40
47310;DHT22;33046;52.270;6.832;2023-03-01T10:21:46;4.40;92.10
47310;DHT22;33046;52.270;6.832;2023-03-01T10:23:53;4.50;91.70
47310;DHT22;33046;52.270;6.832;2023-03-01T10:26:12;4.50;92.30
47310;DHT22;33046;52.270;6.832;2023-03-01T10:28:26;4.60;91.20
47310;DHT22;33046;52.270;6.832;2023-03-01T10:30:39;4.50;90.90
47310;DHT22;33046;52.270;6.832;2023-03-01T10:32:48;4.60;91.60
47310;DHT22;33046;52.270;6.832;2023-03-01T10:34:56;4.70;91.80
47310;DHT22;33046;52.270;6.832;2023-03-01T10:37:11;4.60;89.60
47310;DHT22;33046;52.270;6.832;2023-03-01T10:39:19;4.70;91.10
47310;DHT22;33046;52.270;6.832;2023-03-01T10:41:27;4.80;91.90
47310;DHT22;33046;52.270;6.832;2023-03-01T10:43:44;4.80;92.00
47310;DHT22;33046;52.270;6.832;2023-03-01T10:45:53;4.90;91.00
47310;DHT22;33046;52.270;6.832;2023-03-01T10:48:05;4.90;90.60
47310;DHT22;33046;52.270;6.832;2023-03-01T10:50:22;4.90;91.40
47310;DHT22;33046;52.270;6.832;2023-03-01T10:52:32;5.00;90.00
47310;DHT22;33046;52.270;6.832;2023-03-01T10:54:39;5.10;90.00
47310;DHT22;33046;52.270;6.832;2023-03-01T10:56:48;5.10;88.50
47310;DHT22;33046;52.270;6.832;2023-03-01T10:59:00;5.10;86.40
47310;DHT22;33046;52.270;6.832;2023-03-01T11:01:26;5.10;87.50
47310;DHT22;33046;52.270;6.832;2023-03-01T11:03:35;5.10;85.30
47310;DHT22;33046;52.270;6.832;2023-03-01T11:05:56;5.10;87.20
47310;DHT22;33046;52.270;6.832;2023-03-01T11:08:04;5.10;85.70
47310;DHT22;33046;52.270;6.832;2023-03-01T11:10:12;5.20;88.50
47310;DHT22;33046;52.270;6.832;2023-03-01T11:12:20;5.20;87.00
47310;DHT22;33046;52.270;6.832;2023-03-01T11:14:30;5.20;85.40
47310;DHT22;33046;52.270;6.832;2023-03-01T11:16:42;5.20;85.50
47310;DHT22;33046;52.270;6.832;2023-03-01T11:18:56;5.30;89.30
47310;DHT22;33046;52.270;6.832;2023-03-01T11:21:05;5.40;89.90
47310;DHT22;33046;52.270;6.832;2023-03-01T11:23:14;5.50;89.80
47310;DHT22;33046;52.270;6.832;2023-03-01T11:25:25;5.50;89.20
47310;DHT22;33046;52.270;6.832;2023-03-01T11:27:33;5.60;88.70
47310;DHT22;33046;52.270;6.832;2023-03-01T11:29:43;5.60;90.40
47310;DHT22;33046;52.270;6.832;2023-03-01T11:31:59;5.60;88.50
47310;DHT22;33046;52.270;6.832;2023-03-01T11:34:12;5.70;86.60
47310;DHT22;33046;52.270;6.832;2023-03-01T11:36:27;5.70;87.00
47310;DHT22;33046;52.270;6.832;2023-03-01T11:38:36;5.70;86.50
47310;DHT22;33046;52.270;6.832;2023-03-01T11:40:46;5.80;85.10
47310;DHT22;33046;52.270;6.832;2023-03-01T11:43:05;5.80;84.70
47310;DHT22;33046;52.270;6.832;2023-03-01T11:45:15;5.90;84.40
47310;DHT22;33046;52.270;6.832;2023-03-01T11:47:33;5.90;85.60
47310;DHT22;33046;52.270;6.832;2023-03-01T11:50:02;5.90;86.80
47310;DHT22;33046;52.270;6.832;2023-03-01T11:52:20;6.00;87.00
47310;DHT22;33046;52.270;6.832;2023-03-01T11:54:40;6.00;84.60
47310;DHT22;33046;52.270;6.832;2023-03-01T11:56:55;6.00;84.20
47310;DHT22;33046;52.270;6.832;2023-03-01T11:59:18;6.10;83.20
47310;DHT22;33046;52.270;6.832;2023-03-01T12:01:36;6.10;83.20
47310;DHT22;33046;52.270;6.832;2023-03-01T12:04:14;6.10;83.70
47310;DHT22;33046;52.270;6.832;2023-03-01T12:06:38;6.20;86.10
47310;DHT22;33046;52.270;6.832;2023-03-01T12:08:52;6.30;87.00
47310;DHT22;33046;52.270;6.832;2023-03-01T12:11:10;6.20;83.20
47310;DHT22;33046;52.270;6.832;2023-03-01T12:14:02;6.10;81.60
47310;DHT22;33046;52.270;6.832;2023-03-01T12:16:33;6.10;81.00
47310;DHT22;33046;52.270;6.832;2023-03-01T12:18:58;6.20;83.60
47310;DHT22;33046;52.270;6.832;2023-03-01T12:21:14;6.20;85.80
47310;DHT22;33046;52.270;6.832;2023-03-01T12:23:54;6.30;81.60
47310;DHT22;33046;52.270;6.832;2023-03-01T12:26:11;6.30;82.60
47310;DHT22;33046;52.270;6.832;2023-03-01T12:31:23;6.30;82.50
47310;DHT22;33046;52.270;6.832;2023-03-01T12:33:45;6.30;85.70
47310;DHT22;33046;52.270;6.832;2023-03-01T12:36:16;6.40;84.90
47310;DHT22;33046;52.270;6.832;2023-03-01T12:38:33;6.40;84.40
47310;DHT22;33046;52.270;6.832;2023-03-01T12:40:58;6.50;85.40
47310;DHT22;33046;52.270;6.832;2023-03-01T12:43:15;6.40;81.70
47310;DHT22;33046;52.270;6.832;2023-03-01T12:45:48;6.40;82.70
47310;DHT22;33046;52.270;6.832;2023-03-01T12:48:17;6.40;80.40
47310;DHT22;33046;52.270;6.832;2023-03-01T12:50:36;6.40;83.90
47310;DHT22;33046;52.270;6.832;2023-03-01T12:52:50;6.50;84.20
47310;DHT22;33046;52.270;6.832;2023-03-01T12:54:58;6.50;83.50
47310;DHT22;33046;52.270;6.832;2023-03-01T12:57:14;6.40;80.60
47310;DHT22;33046;52.270;6.832;2023-03-01T12:59:26;6.40;79.70
47310;DHT22;33046;52.270;6.832;2023-03-01T13:01:40;6.50;81.90
47310;DHT22;33046;52.270;6.832;2023-03-01T13:04:06;6.50;79.00
47310;DHT22;33046;52.270;6.832;2023-03-01T13:06:20;6.50;80.10
47310;DHT22;33046;52.270;6.832;2023-03-01T13:08:41;6.50;78.80
47310;DHT22;33046;52.270;6.832;2023-03-01T13:10:51;6.50;81.10
47310;DHT22;33046;52.270;6.832;2023-03-01T13:13:08;6.60;81.60
47310;DHT22;33046;52.270;6.832;2023-03-01T13:15:34;6.70;82.60
47310;DHT22;33046;52.270;6.832;2023-03-01T13:17:43;6.60;83.20
47310;DHT22;33046;52.270;6.832;2023-03-01T13:19:57;6.70;81.80
47310;DHT22;33046;52.270;6.832;2023-03-01T13:22:25;6.70;78.90
47310;DHT22;33046;52.270;6.832;2023-03-01T13:24:38;6.60;79.10
47310;DHT22;33046;52.270;6.832;2023-03-01T13:29:26;6.60;80.80
47310;DHT22;33046;52.270;6.832;2023-03-01T13:31:57;6.70;79.90
47310;DHT22;33046;52.270;6.832;2023-03-01T13:36:50;6.70;78.50
47310;DHT22;33046;52.270;6.832;2023-03-01T13:38:58;6.70;80.00
47310;DHT22;33046;52.270;6.832;2023-03-01T13:41:07;6.70;79.80
47310;DHT22;33046;52.270;6.832;2023-03-01T13:43:30;6.70;79.50
47310;DHT22;33046;52.270;6.832;2023-03-01T13:45:39;6.70;81.40
47310;DHT22;33046;52.270;6.832;2023-03-01T13:47:49;6.70;78.60
47310;DHT22;33046;52.270;6.832;2023-03-01T13:49:58;6.70;77.70
47310;DHT22;33046;52.270;6.832;2023-03-01T13:52:05;6.60;76.70
47310;DHT22;33046;52.270;6.832;2023-03-01T13:54:14;6.70;79.10
47310;DHT22;33046;52.270;6.832;2023-03-01T13:56:25;6.70;77.30
47310;DHT22;33046;52.270;6.832;2023-03-01T13:58:33;6.70;78.70
47310;DHT22;33046;52.270;6.832;2023-03-01T14:00:56;6.70;76.90
47310;DHT22;33046;52.270;6.832;2023-03-01T14:03:12;6.80;79.30
47310;DHT22;33046;52.270;6.832;2023-03-01T14:05:19;6.80;78.70